createdAt,value
2022-11-30T00:00:37.960Z,25.23
2022-11-30T00:04:53.901Z,25.63
2022-11-30T00:08:57.513Z,25.40
2022-11-30T00:12:59.195Z,25.70
2022-11-30T00:17:01.269Z,26.33
2022-11-30T00:21:06.407Z,25.80
2022-11-30T00:25:08.642Z,27.30
2022-11-30T00:29:10.572Z,23.83
2022-11-30T00:33:12.224Z,24.35
2022-11-30T00:37:14.919Z,26.00
2022-11-30T00:41:18.935Z,25.73
2022-11-30T00:45:20.920Z,23.48
2022-11-30T00:49:22.658Z,25.63
2022-11-30T00:53:24.586Z,24.33
2022-11-30T00:57:26.239Z,25.13
2022-11-30T01:01:28.340Z,24.55
2022-11-30T01:05:32.263Z,24.15
2022-11-30T01:09:34.310Z,25.33
2022-11-30T01:13:35.956Z,22.10
2022-11-30T01:17:37.922Z,21.73
2022-11-30T01:21:39.572Z,24.40
2022-11-30T01:25:41.674Z,23.83
2022-11-30T01:29:43.253Z,24.75
2022-11-30T01:33:49.190Z,25.38
2022-11-30T01:37:50.922Z,28.63
2022-11-30T01:41:54.935Z,26.30
2022-11-30T01:45:57.495Z,31.40
2022-11-30T01:50:21.681Z,24.50
2022-11-30T01:54:34.289Z,23.05
2022-11-30T01:58:36.675Z,26.48
2022-11-30T02:02:55.633Z,25.63
2022-11-30T02:06:59.089Z,32.08
2022-11-30T02:11:05.259Z,30.50
2022-11-30T02:15:12.308Z,34.70
2022-11-30T02:19:14.248Z,30.50
2022-11-30T02:23:41.088Z,23.58
2022-11-30T02:32:15.364Z,31.65
2022-11-30T02:36:19.186Z,25.42
2022-11-30T02:40:21.822Z,27.27
2022-11-30T02:44:24.983Z,24.63
2022-11-30T02:48:41.422Z,27.83
2022-11-30T02:52:44.981Z,26.10
2022-11-30T02:56:46.629Z,25.20
2022-11-30T03:00:48.547Z,27.65
2022-11-30T03:04:50.500Z,26.17
2022-11-30T03:08:52.302Z,26.33
2022-11-30T03:12:57.858Z,26.27
2022-11-30T03:16:59.899Z,28.65
2022-11-30T03:21:06.148Z,26.23
2022-11-30T03:25:08.907Z,26.98
2022-11-30T03:29:10.605Z,30.88
2022-11-30T03:33:12.478Z,27.80
2022-11-30T03:37:14.185Z,27.20
2022-11-30T03:41:17.414Z,25.60
2022-11-30T03:45:19.042Z,32.15
2022-11-30T03:49:20.992Z,27.85
2022-11-30T03:53:25.076Z,27.98
2022-11-30T03:57:26.985Z,27.23
2022-11-30T04:01:28.872Z,28.08
2022-11-30T04:05:30.852Z,26.23
2022-11-30T04:09:32.520Z,25.92
2022-11-30T04:13:36.304Z,25.13
2022-11-30T04:17:38.389Z,24.63
2022-11-30T04:21:40.547Z,24.90
2022-11-30T04:25:42.615Z,25.40
2022-11-30T04:29:44.676Z,23.13
2022-11-30T04:33:46.346Z,23.42
2022-11-30T04:37:48.374Z,25.40
2022-11-30T04:41:50.074Z,23.52
2022-11-30T04:45:51.987Z,23.67
2022-11-30T04:49:53.647Z,23.23
2022-11-30T04:53:55.802Z,24.13
2022-11-30T04:57:57.503Z,24.13
2022-11-30T05:01:59.438Z,23.40
2022-11-30T05:06:01.271Z,25.20
2022-11-30T05:10:04.571Z,25.88
2022-11-30T05:14:06.231Z,26.10
2022-11-30T05:18:08.289Z,24.08
2022-11-30T05:22:10.103Z,24.80
2022-11-30T05:26:12.098Z,27.05
2022-11-30T05:30:14.246Z,26.15
2022-11-30T05:34:16.350Z,25.63
2022-11-30T05:38:18.349Z,24.08
2022-11-30T05:42:20.697Z,28.08
2022-11-30T05:46:22.490Z,25.13
2022-11-30T05:50:24.505Z,25.60
2022-11-30T05:54:26.489Z,28.77
2022-11-30T05:58:28.336Z,25.85
2022-11-30T06:02:30.144Z,24.55
2022-11-30T06:06:32.843Z,24.85
2022-11-30T06:10:34.412Z,28.83
2022-11-30T06:14:36.344Z,26.40
2022-11-30T06:18:38.500Z,28.58
2022-11-30T06:22:40.471Z,27.70
2022-11-30T06:26:42.093Z,28.02
2022-11-30T06:30:44.039Z,28.25
2022-11-30T06:34:46.040Z,29.00
2022-11-30T06:38:48.171Z,30.63
2022-11-30T06:42:50.148Z,32.47
2022-11-30T06:46:52.030Z,28.25
2022-11-30T06:50:53.688Z,27.27
2022-11-30T06:54:55.616Z,28.75
2022-11-30T06:58:57.642Z,27.33
2022-11-30T07:02:59.514Z,27.98
2022-11-30T07:07:01.365Z,27.63
2022-11-30T07:11:03.818Z,28.50
2022-11-30T07:15:06.004Z,26.90
2022-11-30T07:19:08.109Z,29.35
2022-11-30T07:23:28.651Z,27.13
2022-11-30T07:27:30.474Z,27.08
2022-11-30T07:31:36.291Z,26.55
2022-11-30T07:35:38.204Z,28.92
2022-11-30T07:39:39.821Z,28.67
2022-11-30T07:43:41.858Z,27.75
2022-11-30T07:47:43.640Z,28.60
2022-11-30T07:51:45.713Z,25.80
2022-11-30T07:55:49.640Z,25.75
2022-11-30T07:59:53.513Z,26.08
2022-11-30T08:03:56.398Z,24.90
2022-11-30T08:07:58.124Z,26.88
2022-11-30T08:12:00.163Z,25.75
2022-11-30T08:16:03.022Z,27.75
2022-11-30T08:20:06.668Z,29.38
2022-11-30T08:24:12.583Z,27.05
2022-11-30T08:28:14.494Z,26.67
2022-11-30T08:32:16.783Z,25.17
2022-11-30T08:36:22.005Z,23.80
2022-11-30T08:40:23.645Z,24.15
2022-11-30T08:44:25.743Z,23.85
2022-11-30T08:48:27.360Z,27.08
2022-11-30T08:52:29.302Z,25.23
2022-11-30T08:56:31.400Z,23.73
2022-11-30T09:00:33.131Z,21.08
2022-11-30T09:04:35.292Z,21.75
2022-11-30T09:08:40.881Z,20.48
2022-11-30T09:12:43.306Z,20.13
2022-11-30T09:16:45.226Z,20.55
2022-11-30T09:20:46.967Z,19.90
2022-11-30T09:24:49.332Z,21.20
2022-11-30T09:28:52.758Z,20.25
2022-11-30T09:32:54.790Z,19.92
2022-11-30T09:36:56.404Z,19.75
2022-11-30T09:41:00.834Z,21.33
2022-11-30T09:45:15.025Z,22.25
2022-11-30T09:49:22.761Z,24.75
2022-11-30T09:53:30.880Z,21.33
2022-11-30T09:57:48.659Z,21.35
2022-11-30T10:01:55.326Z,18.58
2022-11-30T10:06:10.259Z,18.83
2022-11-30T10:10:34.418Z,19.27
2022-11-30T10:15:06.590Z,18.48
2022-11-30T10:19:17.339Z,19.60
2022-11-30T10:23:37.725Z,17.95
2022-11-30T10:28:18.100Z,18.08
2022-11-30T10:32:35.736Z,18.70
2022-11-30T10:36:41.679Z,18.88
2022-11-30T10:41:09.797Z,18.38
2022-11-30T10:45:15.023Z,21.63
2022-11-30T10:49:19.407Z,19.30
2022-11-30T10:53:22.043Z,17.02
2022-11-30T10:57:31.253Z,17.77
2022-11-30T11:01:35.080Z,18.10
2022-11-30T11:05:36.860Z,17.30
2022-11-30T11:09:42.249Z,16.10
2022-11-30T11:13:44.047Z,18.80
2022-11-30T11:17:47.062Z,17.60
2022-11-30T11:21:50.288Z,17.02
2022-11-30T11:25:53.285Z,18.45
2022-11-30T11:30:02.939Z,19.75
2022-11-30T11:34:08.756Z,18.70
2022-11-30T11:38:21.032Z,17.98
2022-11-30T11:42:22.997Z,19.77
2022-11-30T11:46:25.021Z,20.35
2022-11-30T11:54:58.922Z,19.58
2022-11-30T11:59:09.464Z,20.55
2022-11-30T12:03:25.195Z,18.30
2022-11-30T12:07:35.850Z,19.95
2022-11-30T12:11:43.070Z,19.63
2022-11-30T12:16:24.018Z,16.80
2022-11-30T12:20:44.274Z,18.25
2022-11-30T12:24:54.327Z,19.85
2022-11-30T12:29:21.539Z,18.95
2022-11-30T12:33:41.879Z,20.02
2022-11-30T12:37:56.878Z,21.40
2022-11-30T12:42:05.354Z,19.30
2022-11-30T12:46:14.655Z,19.83
2022-11-30T12:50:19.466Z,21.20
2022-11-30T12:54:32.083Z,19.63
2022-11-30T12:58:55.467Z,19.13
2022-11-30T13:03:16.211Z,19.85
2022-11-30T13:07:36.469Z,20.20
2022-11-30T13:11:41.184Z,18.92
2022-11-30T13:15:44.422Z,28.23
2022-11-30T13:20:22.056Z,19.88
2022-11-30T13:24:34.997Z,18.65
2022-11-30T13:28:42.692Z,17.25
2022-11-30T13:33:00.064Z,18.38
2022-11-30T13:37:07.959Z,21.42
2022-11-30T13:41:09.967Z,27.67
2022-11-30T13:45:11.659Z,19.55
2022-11-30T13:49:23.917Z,20.45
2022-11-30T13:53:34.137Z,19.98
2022-11-30T13:57:36.925Z,19.17
2022-11-30T14:01:38.635Z,20.23
2022-11-30T14:05:42.536Z,21.50
2022-11-30T14:09:55.994Z,19.73
2022-11-30T14:13:57.952Z,25.10
2022-11-30T14:18:04.793Z,23.15
2022-11-30T14:22:11.721Z,23.85
2022-11-30T14:26:15.807Z,23.40
2022-11-30T14:30:21.485Z,18.60
2022-11-30T14:34:35.701Z,20.33
2022-11-30T14:38:42.270Z,21.05
2022-11-30T14:43:04.169Z,19.95
2022-11-30T14:47:20.582Z,19.60
2022-11-30T14:51:22.361Z,19.38
2022-11-30T14:56:21.644Z,25.83
2022-11-30T15:00:23.931Z,20.65
2022-11-30T15:04:27.476Z,22.70
2022-11-30T15:08:37.835Z,22.77
2022-11-30T15:12:41.725Z,24.05
2022-11-30T15:16:55.430Z,22.23
2022-11-30T15:21:08.343Z,20.50
2022-11-30T15:25:13.502Z,20.30
2022-11-30T15:29:20.789Z,19.77
2022-11-30T15:33:28.180Z,20.05
2022-11-30T15:37:32.316Z,21.52
2022-11-30T15:41:35.862Z,22.38
2022-11-30T15:45:38.528Z,23.55
2022-11-30T15:49:51.578Z,23.83
2022-11-30T15:53:53.316Z,20.77
2022-11-30T15:58:02.878Z,23.25
2022-11-30T16:02:08.342Z,25.65
2022-11-30T16:06:19.862Z,23.80
2022-11-30T16:10:38.064Z,25.17
2022-11-30T16:14:40.044Z,22.58
2022-11-30T16:18:42.078Z,25.40
2022-11-30T16:22:46.536Z,25.77
2022-11-30T16:26:52.184Z,22.98
2022-11-30T16:30:59.748Z,25.02
2022-11-30T16:35:02.123Z,24.30
2022-11-30T16:39:04.922Z,26.50
2022-11-30T16:43:06.731Z,31.17
2022-11-30T16:47:08.679Z,26.17
2022-11-30T16:51:15.450Z,23.00
2022-11-30T16:55:20.628Z,21.95
2022-11-30T16:59:22.313Z,20.63
2022-11-30T17:03:28.568Z,17.27
2022-11-30T17:07:30.540Z,18.05
2022-11-30T17:11:35.076Z,16.20
2022-11-30T17:15:36.720Z,15.38
2022-11-30T17:19:38.824Z,18.08
2022-11-30T17:23:40.676Z,16.65
2022-11-30T17:27:42.965Z,15.45
2022-11-30T17:31:45.573Z,16.02
2022-11-30T17:35:47.775Z,18.35
2022-11-30T17:39:50.413Z,19.70
2022-11-30T17:43:52.428Z,17.38
2022-11-30T17:47:54.161Z,16.23
2022-11-30T17:51:56.350Z,15.82
2022-11-30T17:56:22.210Z,15.18
2022-11-30T18:00:24.477Z,19.90
2022-11-30T18:04:26.309Z,15.30
2022-11-30T18:08:29.756Z,15.23
2022-11-30T18:12:31.409Z,14.05
2022-11-30T18:16:38.890Z,15.80
2022-11-30T18:20:40.654Z,20.52
2022-11-30T18:24:42.684Z,23.02
2022-11-30T18:28:45.674Z,23.33
2022-11-30T18:32:47.657Z,30.52
2022-11-30T18:36:49.375Z,25.50
2022-11-30T18:40:52.201Z,20.38
2022-11-30T18:44:53.916Z,21.80
2022-11-30T18:48:56.509Z,32.90
2022-11-30T18:52:58.416Z,27.30
2022-11-30T18:57:01.620Z,29.50
2022-11-30T19:01:11.935Z,29.85
2022-11-30T19:05:31.532Z,16.35
2022-11-30T19:09:33.507Z,22.35
2022-11-30T19:13:36.618Z,19.65
2022-11-30T19:17:38.399Z,18.73
2022-11-30T19:21:44.337Z,21.55
2022-11-30T19:25:46.147Z,20.17
2022-11-30T19:29:48.485Z,20.77
2022-11-30T19:33:52.454Z,19.38
2022-11-30T19:37:54.648Z,18.35
2022-11-30T19:41:56.583Z,15.38
2022-11-30T19:46:07.073Z,15.07
2022-11-30T19:50:08.996Z,15.75
2022-11-30T19:54:11.301Z,15.38
2022-11-30T19:58:13.041Z,15.55
2022-11-30T20:02:15.076Z,15.82
2022-11-30T20:06:17.952Z,17.67
2022-11-30T20:10:20.024Z,16.38
2022-11-30T20:14:22.874Z,17.58
2022-11-30T20:18:25.167Z,18.48
2022-11-30T20:22:26.951Z,19.08
2022-11-30T20:26:34.888Z,19.88
2022-11-30T20:30:36.677Z,22.48
2022-11-30T20:34:43.592Z,24.33
2022-11-30T20:38:46.616Z,21.80
2022-11-30T20:42:50.810Z,23.88
2022-11-30T20:46:52.812Z,21.63
2022-11-30T20:51:22.021Z,21.70
2022-11-30T20:55:17.201Z,21.88
2022-11-30T20:59:22.272Z,20.25
2022-11-30T21:03:24.353Z,18.23
2022-11-30T21:07:26.247Z,18.13
2022-11-30T21:11:29.502Z,17.42
2022-11-30T21:15:31.331Z,18.20
2022-11-30T21:19:33.742Z,16.88
2022-11-30T21:23:36.038Z,17.23
2022-11-30T21:27:38.098Z,18.75
2022-11-30T21:31:40.533Z,18.15
2022-11-30T21:35:42.288Z,18.90
2022-11-30T21:39:44.367Z,17.35
2022-11-30T21:43:46.408Z,17.85
2022-11-30T21:47:48.262Z,17.52
2022-11-30T21:51:50.466Z,18.98
2022-11-30T21:55:55.736Z,18.63
2022-11-30T21:59:57.988Z,23.33
2022-11-30T22:04:02.323Z,19.83
2022-11-30T22:08:04.442Z,18.45
2022-11-30T22:12:06.794Z,17.55
2022-11-30T22:16:13.119Z,17.52
2022-11-30T22:20:15.401Z,20.10
2022-11-30T22:24:17.476Z,18.20
2022-11-30T22:28:19.654Z,18.13
2022-11-30T22:32:22.240Z,18.23
2022-11-30T22:36:27.164Z,17.92
2022-11-30T22:40:29.373Z,17.25
2022-11-30T22:44:31.447Z,18.55
2022-11-30T22:48:33.717Z,19.92
2022-11-30T22:53:01.381Z,18.67
2022-11-30T22:56:57.667Z,18.52
2022-11-30T23:01:09.478Z,20.30
2022-11-30T23:05:11.126Z,18.67
2022-11-30T23:09:16.889Z,18.65
2022-11-30T23:13:18.536Z,18.95
2022-11-30T23:17:20.422Z,19.00
2022-11-30T23:21:24.674Z,20.27
2022-11-30T23:25:26.605Z,20.63
2022-11-30T23:29:28.430Z,19.42
2022-11-30T23:33:30.500Z,18.60
2022-11-30T23:37:32.194Z,18.83
2022-11-30T23:41:34.122Z,19.88
2022-11-30T23:45:35.833Z,18.95
2022-11-30T23:49:37.748Z,19.15
2022-11-30T23:53:39.339Z,20.83
2022-11-30T23:57:41.446Z,19.23
